Time;durP1;ratioP1;P1;durP2;ratioP2;P2;SDS_P1;SDS_P2;PMS_P1;PMS_P2;Temp;Humidity;BMP_temperature;BMP_pressure;BME280_temperature;BME280_humidity;BME280_pressure;Samples;Min_cycle;Max_cycle;Signal;HPM_P1;HPM_P2
2021/07/01 00:01:36;;;;;;;11.50;7.40;;;15.90;90.00;;;;;;5059212;28;20540;-72
2021/07/01 00:04:02;;;;;;;9.53;7.40;;;15.80;90.00;;;;;;5045714;28;20193;-72
2021/07/01 00:06:27;;;;;;;11.00;6.57;;;15.80;90.00;;;;;;5045325;28;20672;-72
2021/07/01 00:08:53;;;;;;;13.27;6.83;;;15.80;90.60;;;;;;5063368;28;20222;-72
2021/07/01 00:11:18;;;;;;;8.93;6.43;;;15.90;90.50;;;;;;5062549;28;20631;-72
2021/07/01 00:13:44;;;;;;;10.80;6.77;;;15.80;90.80;;;;;;5055008;28;20202;-72
2021/07/01 00:16:10;;;;;;;7.87;6.60;;;15.70;91.20;;;;;;5062791;28;20240;-72
2021/07/01 00:18:36;;;;;;;11.03;6.23;;;15.70;91.20;;;;;;5062132;28;20194;-72
2021/07/01 00:21:02;;;;;;;8.57;6.03;;;15.70;91.60;;;;;;5058626;28;20300;-72
2021/07/01 00:23:27;;;;;;;10.27;6.23;;;15.70;91.70;;;;;;5063693;28;20547;-72
2021/07/01 00:25:53;;;;;;;9.60;6.73;;;15.70;91.80;;;;;;5062834;28;20619;-72
2021/07/01 00:28:19;;;;;;;10.30;6.67;;;15.70;91.80;;;;;;5050053;28;20313;-72
2021/07/01 00:30:44;;;;;;;7.30;6.00;;;15.70;92.10;;;;;;5049897;28;20298;-72
2021/07/01 00:33:10;;;;;;;8.63;6.47;;;15.70;92.20;;;;;;5060370;28;20209;-72
2021/07/01 00:35:36;;;;;;;8.67;6.67;;;15.70;92.20;;;;;;5059633;28;20704;-72
2021/07/01 00:38:02;;;;;;;7.77;5.87;;;15.70;92.20;;;;;;5067190;28;20195;-73
2021/07/01 00:40:27;;;;;;;6.80;5.80;;;15.70;92.00;;;;;;5061091;28;20217;-72
2021/07/01 00:42:53;;;;;;;8.17;5.80;;;15.70;92.50;;;;;;5063864;28;20190;-72
2021/07/01 00:45:19;;;;;;;8.67;7.20;;;15.70;92.60;;;;;;5065112;28;20281;-72
2021/07/01 00:47:44;;;;;;;7.40;5.97;;;15.70;92.80;;;;;;5062151;28;20226;-72
2021/07/01 00:50:12;;;;;;;9.40;6.10;;;15.70;92.80;;;;;;5061706;28;20673;-72
2021/07/01 00:52:39;;;;;;;5.43;4.50;;;15.80;92.30;;;;;;5044782;28;20274;-72
2021/07/01 00:55:09;;;;;;;8.17;5.90;;;15.70;85.30;;;;;;5050158;28;20434;-72
2021/07/01 00:57:36;;;;;;;7.07;5.83;;;15.80;85.90;;;;;;5051855;28;20242;-72
2021/07/01 01:00:08;;;;;;;6.77;5.87;;;15.80;87.40;;;;;;5052012;28;20197;-71
2021/07/01 01:02:34;;;;;;;10.03;5.37;;;15.90;88.60;;;;;;5044353;28;20198;-71
2021/07/01 01:05:00;;;;;;;8.00;4.80;;;15.90;83.10;;;;;;5063345;28;20195;-71
2021/07/01 01:07:25;;;;;;;6.13;4.43;;;15.90;83.20;;;;;;5061093;28;20217;-72
2021/07/01 01:09:51;;;;;;;6.30;4.57;;;15.90;81.40;;;;;;5063971;28;20233;-72
2021/07/01 01:12:17;;;;;;;4.83;4.33;;;15.90;83.20;;;;;;5043955;28;20191;-73
2021/07/01 01:14:42;;;;;;;5.13;3.93;;;15.90;81.90;;;;;;5043080;28;20197;-73
2021/07/01 01:17:08;;;;;;;5.47;3.63;;;16.00;82.00;;;;;;5062630;28;20557;-73
2021/07/01 01:19:33;;;;;;;3.93;3.53;;;15.90;78.90;;;;;;5048213;28;20269;-72
2021/07/01 01:21:59;;;;;;;4.30;3.23;;;16.00;77.00;;;;;;5059604;28;20252;-72
2021/07/01 01:24:24;;;;;;;3.43;3.07;;;16.00;75.60;;;;;;5060665;28;20204;-72
2021/07/01 01:26:50;;;;;;;4.20;3.73;;;16.00;75.80;;;;;;5060342;28;20708;-73
2021/07/01 01:29:20;;;;;;;5.70;3.70;;;16.00;75.70;;;;;;5051102;28;20248;-72
2021/07/01 01:31:46;;;;;;;5.40;3.70;;;16.00;77.70;;;;;;5048946;28;20195;-72
2021/07/01 01:34:11;;;;;;;5.00;3.00;;;16.00;77.40;;;;;;5063855;28;20187;-72
2021/07/01 01:36:37;;;;;;;4.37;3.03;;;16.00;76.00;;;;;;5061864;28;20654;-73
2021/07/01 01:39:03;;;;;;;4.30;3.03;;;15.90;73.40;;;;;;5062693;28;20277;-73
2021/07/01 01:41:29;;;;;;;3.23;2.40;;;16.00;75.10;;;;;;5066909;28;20704;-71
2021/07/01 01:43:55;;;;;;;2.17;2.07;;;16.00;72.10;;;;;;5041910;28;20199;-72
2021/07/01 01:46:20;;;;;;;2.47;2.23;;;16.00;70.30;;;;;;5059324;28;20564;-71
2021/07/01 01:48:51;;;;;;;2.20;1.33;;;16.00;68.50;;;;;;5063553;28;20332;-71
2021/07/01 01:51:16;;;;;;;1.50;1.40;;;15.90;68.10;;;;;;5049178;28;20529;-71
2021/07/01 01:53:42;;;;;;;2.30;2.10;;;15.90;67.80;;;;;;5043376;28;20198;-71
2021/07/01 01:56:07;;;;;;;2.17;1.97;;;16.00;66.60;;;;;;5057307;28;20240;-71
2021/07/01 01:58:33;;;;;;;4.70;2.10;;;15.90;68.50;;;;;;5040942;28;20294;-71
2021/07/01 02:00:59;;;;;;;2.63;2.20;;;15.90;69.10;;;;;;5063158;28;20590;-71
2021/07/01 02:03:24;;;;;;;2.63;2.40;;;15.90;69.00;;;;;;5064659;28;20678;-71
2021/07/01 02:05:50;;;;;;;2.47;2.10;;;15.90;69.10;;;;;;5062933;28;20262;-71
2021/07/01 02:08:16;;;;;;;4.80;1.90;;;15.80;69.00;;;;;;5066393;28;20270;-71
2021/07/01 02:10:41;;;;;;;2.27;2.00;;;16.00;70.70;;;;;;5061525;28;20251;-71
2021/07/01 02:13:10;;;;;;;6.87;2.13;;;15.80;69.90;;;;;;5064119;28;20240;-71
2021/07/01 02:15:36;;;;;;;2.93;2.63;;;15.70;68.90;;;;;;5063236;28;20265;-72
2021/07/01 02:18:03;;;;;;;2.30;2.10;;;15.80;70.20;;;;;;5066210;28;20615;-71
2021/07/01 02:20:28;;;;;;;3.70;2.10;;;15.90;66.90;;;;;;5065495;28;20188;-71
2021/07/01 02:22:55;;;;;;;2.23;1.80;;;15.90;64.90;;;;;;5061825;28;20634;-71
2021/07/01 02:25:21;;;;;;;3.10;2.17;;;15.90;64.60;;;;;;5066036;28;20189;-71
2021/07/01 02:27:47;;;;;;;3.23;2.20;;;15.90;64.10;;;;;;5061286;28;20226;-72
2021/07/01 02:30:15;;;;;;;2.37;1.97;;;16.00;64.20;;;;;;5068420;28;20633;-72
2021/07/01 02:32:42;;;;;;;2.43;2.23;;;15.80;65.60;;;;;;5068031;28;23849;-72
2021/07/01 02:35:09;;;;;;;3.10;2.30;;;15.80;66.80;;;;;;5064694;28;20363;-72
2021/07/01 02:37:35;;;;;;;2.50;2.23;;;15.80;66.80;;;;;;5065560;28;20202;-72
2021/07/01 02:40:03;;;;;;;2.73;2.27;;;15.80;66.70;;;;;;5065838;28;20241;-72
2021/07/01 02:42:29;;;;;;;3.37;2.30;;;15.80;67.60;;;;;;5065262;28;20244;-72
2021/07/01 02:44:54;;;;;;;3.40;2.67;;;15.80;67.70;;;;;;5063286;28;20201;-72
2021/07/01 02:47:20;;;;;;;4.07;2.67;;;15.80;68.40;;;;;;5063101;28;20680;-72
2021/07/01 02:49:45;;;;;;;4.07;2.43;;;15.80;68.40;;;;;;5061236;28;20246;-71
2021/07/01 02:52:11;;;;;;;3.43;2.90;;;15.80;69.00;;;;;;5065763;28;20187;-72
2021/07/01 02:54:36;;;;;;;2.37;2.17;;;15.80;69.90;;;;;;5064407;28;20263;-72
2021/07/01 02:57:02;;;;;;;5.13;3.00;;;15.80;71.40;;;;;;5064288;28;20194;-71
2021/07/01 02:59:28;;;;;;;5.87;3.67;;;15.80;64.30;;;;;;5065386;28;20572;-71
2021/07/01 03:01:53;;;;;;;4.90;3.70;;;15.70;64.50;;;;;;5049929;28;20549;-72
2021/07/01 03:04:19;;;;;;;7.27;5.07;;;15.70;64.50;;;;;;5064264;28;20187;-72
2021/07/01 03:06:45;;;;;;;6.87;5.23;;;15.70;64.10;;;;;;5064301;28;20215;-72
2021/07/01 03:09:11;;;;;;;9.77;6.20;;;15.60;60.00;;;;;;5061693;28;20215;-72
2021/07/01 03:11:38;;;;;;;9.33;7.33;;;15.40;58.10;;;;;;5042780;28;20221;-71
2021/07/01 03:14:06;;;;;;;10.17;7.27;;;15.50;56.00;;;;;;5060517;28;20650;-72
2021/07/01 03:16:33;;;;;;;9.13;7.50;;;15.40;55.70;;;;;;5050646;28;20191;-72
2021/07/01 03:18:59;;;;;;;10.73;7.10;;;15.40;56.20;;;;;;5065312;28;20292;-72
2021/07/01 03:21:24;;;;;;;10.43;7.37;;;15.40;55.80;;;;;;5066386;28;20265;-72
2021/07/01 03:23:50;;;;;;;9.47;6.93;;;15.30;56.40;;;;;;5062566;28;20264;-71
2021/07/01 03:26:17;;;;;;;10.60;7.33;;;15.30;57.00;;;;;;5065171;28;20197;-72
2021/07/01 03:28:44;;;;;;;10.30;7.33;;;15.30;56.60;;;;;;5050225;28;20843;-71
2021/07/01 03:31:10;;;;;;;8.83;6.67;;;15.40;55.50;;;;;;5062020;28;20548;-72
2021/07/01 03:33:35;;;;;;;9.40;6.00;;;15.30;55.80;;;;;;5047980;28;20229;-71
2021/07/01 03:36:04;;;;;;;7.70;6.07;;;15.20;54.70;;;;;;5063190;28;20269;-72
2021/07/01 03:38:30;;;;;;;8.43;7.07;;;15.30;55.50;;;;;;5060232;28;20198;-72
2021/07/01 03:40:56;;;;;;;7.53;6.47;;;15.40;56.50;;;;;;5049932;28;20209;-72
2021/07/01 03:43:22;;;;;;;7.37;5.97;;;15.40;57.30;;;;;;5065917;28;20206;-71
2021/07/01 03:45:48;;;;;;;6.43;5.40;;;15.20;56.90;;;;;;5061598;28;20195;-72
2021/07/01 03:48:13;;;;;;;8.30;5.97;;;15.30;56.30;;;;;;5060158;28;20235;-72
2021/07/01 03:50:39;;;;;;;6.87;5.23;;;15.20;57.40;;;;;;5048288;28;20787;-72
2021/07/01 03:53:05;;;;;;;6.57;5.23;;;15.30;56.70;;;;;;5059978;28;20194;-72
2021/07/01 03:55:31;;;;;;;5.73;4.47;;;15.40;55.80;;;;;;5063032;28;20547;-72
2021/07/01 03:57:57;;;;;;;8.60;5.30;;;15.40;54.90;;;;;;5046320;28;20221;-69
2021/07/01 04:00:22;;;;;;;5.77;5.17;;;15.30;55.40;;;;;;5046084;28;20237;-72
2021/07/01 04:02:48;;;;;;;8.20;5.63;;;15.40;54.90;;;;;;5065525;28;20205;-71
2021/07/01 04:05:14;;;;;;;7.07;5.57;;;15.40;55.70;;;;;;5061237;28;20199;-72
2021/07/01 04:07:40;;;;;;;5.43;4.60;;;15.50;55.10;;;;;;5064845;28;20574;-72
2021/07/01 04:10:09;;;;;;;6.57;4.70;;;15.40;55.50;;;;;;5058485;28;20232;-74
2021/07/01 04:12:35;;;;;;;5.03;4.53;;;15.40;56.40;;;;;;5045716;28;20197;-73
2021/07/01 04:15:02;;;;;;;5.90;5.30;;;15.40;55.70;;;;;;5066617;28;20573;-72
2021/07/01 04:17:27;;;;;;;7.93;5.33;;;15.40;56.50;;;;;;5060328;28;20638;-72
2021/07/01 04:19:53;;;;;;;6.27;5.07;;;15.40;56.30;;;;;;5050341;28;20208;-72
2021/07/01 04:22:19;;;;;;;7.50;5.43;;;15.40;55.40;;;;;;5064680;28;20185;-72
2021/07/01 04:24:44;;;;;;;6.00;5.10;;;15.40;55.50;;;;;;5044617;28;20248;-71
2021/07/01 04:27:10;;;;;;;5.43;4.50;;;15.40;53.60;;;;;;5063982;28;20202;-73
2021/07/01 04:29:36;;;;;;;5.13;4.47;;;15.40;53.90;;;;;;5066023;28;20186;-72
2021/07/01 04:32:02;;;;;;;6.53;4.70;;;15.40;55.50;;;;;;5059501;28;20199;-72
2021/07/01 04:34:27;;;;;;;7.00;4.60;;;15.40;55.00;;;;;;5062603;28;20227;-72
2021/07/01 04:36:53;;;;;;;6.53;5.13;;;15.40;56.50;;;;;;5063773;28;20183;-72
2021/07/01 04:39:19;;;;;;;4.97;3.97;;;15.40;56.00;;;;;;5062341;28;20192;-72
2021/07/01 04:41:45;;;;;;;5.10;4.10;;;15.50;54.80;;;;;;5059791;28;20312;-71
2021/07/01 04:44:10;;;;;;;5.13;3.83;;;15.60;55.10;;;;;;5062413;28;20272;-72
2021/07/01 04:46:36;;;;;;;4.77;3.97;;;15.60;54.20;;;;;;5064155;28;20194;-72
2021/07/01 04:49:02;;;;;;;5.47;4.17;;;15.40;52.70;;;;;;5064304;28;20234;-72
2021/07/01 04:51:28;;;;;;;4.80;4.30;;;15.60;54.20;;;;;;5061875;28;20199;-72
2021/07/01 04:53:53;;;;;;;4.43;3.70;;;15.70;53.40;;;;;;5059884;28;20203;-72
2021/07/01 04:56:19;;;;;;;5.53;3.90;;;15.50;51.20;;;;;;5062083;28;20664;-72
2021/07/01 04:58:45;;;;;;;5.53;3.90;;;15.50;51.80;;;;;;5062467;28;20219;-72
2021/07/01 05:01:11;;;;;;;4.33;3.87;;;15.50;52.40;;;;;;5063599;28;20195;-71
2021/07/01 05:03:37;;;;;;;4.40;3.77;;;15.50;52.70;;;;;;5063257;28;20247;-72
2021/07/01 05:06:03;;;;;;;4.77;3.70;;;15.50;52.50;;;;;;5061177;28;20192;-72
2021/07/01 05:08:29;;;;;;;3.63;3.17;;;15.60;53.60;;;;;;5058913;28;20210;-72
2021/07/01 05:10:55;;;;;;;5.67;4.93;;;15.70;52.60;;;;;;5064860;28;20278;-72
2021/07/01 05:13:21;;;;;;;4.57;3.67;;;15.70;54.00;;;;;;5051916;28;20189;-72
2021/07/01 05:15:46;;;;;;;6.40;4.77;;;15.70;54.10;;;;;;5066806;28;20194;-72
2021/07/01 05:18:12;;;;;;;4.57;3.23;;;15.70;55.50;;;;;;5062289;28;20221;-71
2021/07/01 05:20:38;;;;;;;3.00;2.70;;;15.90;54.70;;;;;;5063625;28;20194;-72
2021/07/01 05:23:04;;;;;;;3.03;2.73;;;15.90;52.80;;;;;;5045127;28;20607;-72
2021/07/01 05:25:29;;;;;;;4.13;2.73;;;15.90;54.40;;;;;;5042276;28;20275;-72
2021/07/01 05:27:55;;;;;;;3.30;2.93;;;15.90;55.80;;;;;;5063087;28;20264;-72
2021/07/01 05:30:21;;;;;;;3.07;2.57;;;15.90;55.90;;;;;;5062995;28;20189;-72
2021/07/01 05:32:46;;;;;;;2.17;1.97;;;16.00;53.80;;;;;;5065881;28;20227;-72
2021/07/01 05:35:12;;;;;;;2.27;1.97;;;16.00;52.80;;;;;;5063255;28;20272;-71
2021/07/01 05:37:38;;;;;;;2.83;1.90;;;15.90;54.70;;;;;;5060636;28;20191;-72
2021/07/01 05:40:05;;;;;;;3.37;2.40;;;15.90;55.20;;;;;;5060699;28;20196;-72
2021/07/01 05:42:31;;;;;;;2.57;2.37;;;15.80;57.50;;;;;;5057728;28;20279;-73
2021/07/01 05:44:56;;;;;;;2.83;2.50;;;15.70;57.40;;;;;;5063731;28;20219;-72
2021/07/01 05:47:22;;;;;;;3.77;3.27;;;15.80;58.60;;;;;;5039565;28;20195;-71
2021/07/01 05:49:48;;;;;;;5.37;3.63;;;15.80;59.00;;;;;;5042804;28;20201;-71
2021/07/01 05:52:19;;;;;;;3.77;3.33;;;15.70;60.00;;;;;;5046582;28;20196;-71
2021/07/01 05:54:55;;;;;;;3.90;2.77;;;15.70;59.50;;;;;;5065375;22;20226;-70
2021/07/01 05:57:22;;;;;;;3.40;2.70;;;15.60;57.00;;;;;;5047056;28;20189;-70
2021/07/01 05:59:48;;;;;;;2.70;2.20;;;15.50;59.30;;;;;;5057016;28;20581;-71
2021/07/01 06:02:13;;;;;;;2.80;2.50;;;15.30;63.00;;;;;;5055338;28;20186;-70
2021/07/01 06:04:39;;;;;;;4.00;2.53;;;15.20;66.60;;;;;;5041042;28;20624;-70
2021/07/01 06:07:05;;;;;;;2.07;1.87;;;15.00;67.70;;;;;;5062600;28;20190;-71
2021/07/01 06:09:31;;;;;;;3.60;2.27;;;15.10;71.30;;;;;;5060369;28;20229;-71
2021/07/01 06:12:00;;;;;;;2.33;2.13;;;15.00;71.00;;;;;;5059040;28;20260;-71
2021/07/01 06:14:27;;;;;;;3.27;2.43;;;14.90;68.10;;;;;;5047127;28;22048;-71
2021/07/01 06:16:59;;;;;;;3.23;2.60;;;14.90;70.80;;;;;;5057862;28;20190;-70
2021/07/01 06:19:25;;;;;;;1.97;1.87;;;14.90;72.20;;;;;;5055463;28;20209;-70
2021/07/01 06:21:51;;;;;;;2.87;2.60;;;14.70;69.60;;;;;;5037928;28;20252;-71
2021/07/01 06:24:17;;;;;;;3.97;2.43;;;14.70;71.00;;;;;;5057873;28;20190;-71
2021/07/01 06:26:45;;;;;;;3.10;2.07;;;14.70;72.70;;;;;;5059003;28;20192;-71
2021/07/01 06:29:12;;;;;;;2.77;2.50;;;14.70;71.50;;;;;;5056793;28;20287;-71
2021/07/01 06:31:39;;;;;;;3.03;2.50;;;14.70;72.60;;;;;;5058793;28;20191;-71
2021/07/01 06:34:05;;;;;;;2.90;2.20;;;14.70;72.90;;;;;;5056065;28;20198;-71
2021/07/01 06:36:34;;;;;;;2.07;1.90;;;14.70;72.10;;;;;;5051955;28;20189;-71
2021/07/01 06:39:03;;;;;;;2.10;1.90;;;14.80;68.00;;;;;;5058061;28;20194;-71
2021/07/01 06:41:31;;;;;;;1.93;1.77;;;14.70;66.40;;;;;;5057517;28;20202;-71
2021/07/01 06:43:57;;;;;;;3.00;2.33;;;14.80;66.50;;;;;;5055260;28;20198;-72
2021/07/01 06:46:30;;;;;;;3.10;2.03;;;14.80;66.40;;;;;;5057445;28;20199;-70
2021/07/01 06:48:56;;;;;;;1.53;1.43;;;14.90;66.60;;;;;;5060887;28;20197;-70
2021/07/01 06:51:22;;;;;;;1.87;1.77;;;15.00;66.10;;;;;;5055837;28;20225;-70
2021/07/01 06:53:49;;;;;;;2.97;1.50;;;15.00;65.70;;;;;;5064196;28;20195;-70
2021/07/01 06:56:14;;;;;;;3.53;2.10;;;15.00;65.10;;;;;;5062368;28;20190;-71
2021/07/01 06:58:42;;;;;;;2.23;1.50;;;15.10;63.40;;;;;;5062166;28;20213;-71
2021/07/01 07:01:08;;;;;;;2.47;2.00;;;15.10;64.40;;;;;;5045792;28;20191;-70
2021/07/01 07:03:34;;;;;;;3.00;1.87;;;;;;;;;;5060293;28;20194;-71
2021/07/01 07:06:03;;;;;;;2.00;1.70;;;15.10;63.70;;;;;;5044925;28;20271;-71
2021/07/01 07:08:30;;;;;;;1.73;1.63;;;15.30;64.10;;;;;;5040514;28;20958;-72
2021/07/01 07:10:56;;;;;;;2.50;2.07;;;15.30;61.30;;;;;;5060201;28;20306;-71
2021/07/01 07:13:24;;;;;;;3.93;1.90;;;15.30;59.70;;;;;;5059713;28;20247;-70
2021/07/01 07:15:52;;;;;;;3.10;1.97;;;15.30;61.60;;;;;;5063210;28;20226;-71
2021/07/01 07:18:26;;;;;;;2.27;1.60;;;15.40;63.70;;;;;;5064755;28;20199;-71
2021/07/01 07:21:18;;;;;;;2.47;1.80;;;15.60;60.70;;;;;;5041184;28;20273;-70
2021/07/01 07:23:51;;;;;;;2.20;2.00;;;15.70;59.50;;;;;;5044972;28;20273;-72
2021/07/01 07:26:20;;;;;;;2.00;1.80;;;15.70;60.10;;;;;;5049201;28;20191;-72
2021/07/01 07:28:51;;;;;;;2.47;1.80;;;15.90;57.40;;;;;;5051879;28;20715;-70
2021/07/01 07:31:28;;;;;;;2.97;1.97;;;16.10;59.50;;;;;;5032732;28;20202;-70
2021/07/01 07:33:58;;;;;;;2.00;1.90;;;16.30;56.30;;;;;;5047376;28;20195;-72
2021/07/01 07:36:26;;;;;;;3.57;2.10;;;16.60;52.20;;;;;;5048757;28;20200;-71
2021/07/01 07:38:53;;;;;;;2.27;2.07;;;16.60;51.50;;;;;;5048204;28;20208;-70
2021/07/01 07:41:20;;;;;;;3.27;2.00;;;16.70;52.30;;;;;;5046995;28;20200;-70
2021/07/01 07:43:49;;;;;;;2.20;2.00;;;16.70;49.60;;;;;;5050517;28;20194;-71
2021/07/01 07:46:19;;;;;;;2.50;2.17;;;16.80;50.30;;;;;;5028359;28;20292;-70
2021/07/01 07:48:45;;;;;;;2.30;2.10;;;16.80;47.40;;;;;;5047351;28;20219;-70
2021/07/01 07:51:15;;;;;;;2.33;2.13;;;16.90;43.60;;;;;;5047621;28;20200;-70
2021/07/01 07:53:42;;;;;;;2.20;2.00;;;16.90;43.60;;;;;;5049408;28;20254;-70
2021/07/01 07:56:09;;;;;;;3.73;2.80;;;16.80;43.90;;;;;;5044332;28;20190;-70
2021/07/01 07:58:40;;;;;;;2.73;2.53;;;16.70;46.30;;;;;;5042770;28;20223;-71
2021/07/01 08:01:09;;;;;;;5.30;3.00;;;16.80;47.20;;;;;;5051814;28;21583;-70
2021/07/01 08:03:38;;;;;;;3.33;3.00;;;17.00;44.20;;;;;;5050101;28;20326;-70
2021/07/01 08:06:05;;;;;;;3.17;2.80;;;17.20;42.20;;;;;;5048392;28;20306;-71
2021/07/01 08:08:33;;;;;;;2.83;2.53;;;17.30;42.00;;;;;;5048192;28;20226;-71
2021/07/01 08:11:00;;;;;;;3.00;2.60;;;17.30;38.70;;;;;;5046122;28;20271;-68
2021/07/01 08:13:28;;;;;;;3.83;2.37;;;17.20;35.50;;;;;;5043218;28;25004;-68
2021/07/01 08:15:55;;;;;;;2.83;2.60;;;17.20;37.80;;;;;;5027665;28;20284;-69
2021/07/01 08:18:41;;;;;;;2.40;2.20;;;17.30;37.50;;;;;;5045611;28;20204;-70
2021/07/01 08:21:16;;;;;;;2.63;2.07;;;17.50;39.00;;;;;;5046022;28;20215;-70
2021/07/01 08:23:43;;;;;;;2.17;1.97;;;17.60;36.10;;;;;;5062962;28;20281;-69
2021/07/01 08:26:10;;;;;;;1.87;1.77;;;17.50;35.00;;;;;;5056627;28;20287;-68
2021/07/01 08:28:36;;;;;;;1.70;1.60;;;17.50;36.60;;;;;;5060662;28;20208;-70
2021/07/01 08:31:08;;;;;;;3.87;1.67;;;17.40;35.00;;;;;;5060491;28;20199;-70
2021/07/01 08:33:36;;;;;;;1.90;1.70;;;17.40;35.40;;;;;;5057833;28;20620;-70
2021/07/01 08:36:04;;;;;;;2.30;1.70;;;17.30;34.70;;;;;;5036214;28;20301;-70
2021/07/01 08:38:36;;;;;;;3.90;1.50;;;17.20;37.00;;;;;;5059467;28;20335;-70
2021/07/01 08:41:10;;;;;;;2.70;1.40;;;17.10;37.40;;;;;;5057310;28;24541;-70
2021/07/01 08:43:51;;;;;;;1.80;1.70;;;17.10;37.60;;;;;;5058524;28;20192;-69
2021/07/01 08:46:25;;;;;;;2.00;1.30;;;17.00;37.30;;;;;;5044579;28;20553;-69
2021/07/01 08:49:11;;;;;;;1.70;1.60;;;16.90;37.80;;;;;;5039367;28;20245;-69
2021/07/01 08:51:43;;;;;;;1.90;1.63;;;16.90;41.70;;;;;;5058606;28;20216;-68
2021/07/01 08:54:32;;;;;;;2.07;1.40;;;17.00;40.90;;;;;;5059088;28;20189;-69
2021/07/01 08:56:58;;;;;;;2.10;1.87;;;17.00;43.60;;;;;;5058940;28;20194;-70
2021/07/01 08:59:33;;;;;;;4.13;1.97;;;17.20;42.70;;;;;;5055985;28;20203;-67
2021/07/01 09:02:02;;;;;;;3.07;1.90;;;17.40;42.20;;;;;;5058327;28;20189;-68
2021/07/01 09:04:37;;;;;;;2.50;2.30;;;17.70;42.10;;;;;;5060329;28;20194;-71
2021/07/01 09:07:04;;;;;;;1.80;1.60;;;17.70;41.80;;;;;;5042415;28;20219;-70
2021/07/01 09:09:33;;;;;;;4.33;2.67;;;18.00;35.30;;;;;;5039038;28;20247;-70
2021/07/01 09:12:08;;;;;;;1.27;1.17;;;18.20;34.40;;;;;;5060078;28;20202;-70
2021/07/01 09:14:37;;;;;;;1.30;1.20;;;18.20;32.00;;;;;;5053163;28;20237;-70
2021/07/01 09:17:09;;;;;;;1.40;1.20;;;17.80;30.40;;;;;;5059787;28;20217;-70
2021/07/01 09:19:36;;;;;;;1.40;1.30;;;17.60;32.90;;;;;;5055941;28;20220;-69
2021/07/01 09:22:02;;;;;;;1.30;1.13;;;17.80;34.20;;;;;;5057761;28;20200;-70
2021/07/01 09:24:35;;;;;;;1.47;1.37;;;17.70;35.00;;;;;;5054304;28;20194;-70
2021/07/01 09:27:07;;;;;;;0.90;0.90;;;17.60;33.00;;;;;;5046909;28;20222;-70
2021/07/01 09:29:34;;;;;;;1.10;1.10;;;17.50;31.50;;;;;;5051387;28;20644;-69
2021/07/01 09:32:00;;;;;;;1.10;1.00;;;17.40;31.80;;;;;;5044007;28;20200;-70
2021/07/01 09:34:27;;;;;;;1.40;1.30;;;17.40;32.70;;;;;;5027966;28;20286;-70
2021/07/01 09:36:56;;;;;;;1.40;1.30;;;17.50;34.40;;;;;;5028653;28;20217;-70
2021/07/01 09:39:24;;;;;;;0.87;0.87;;;17.60;32.10;;;;;;5047072;28;20208;-70
2021/07/01 09:41:50;;;;;;;0.73;0.73;;;17.50;29.10;;;;;;5050056;28;20197;-70
2021/07/01 09:44:18;;;;;;;1.27;1.17;;;17.60;29.70;;;;;;5044844;28;20275;-67
2021/07/01 09:46:48;;;;;;;0.90;0.90;;;17.70;29.70;;;;;;5043527;28;20200;-67
2021/07/01 09:49:20;;;;;;;1.17;1.07;;;17.70;28.60;;;;;;5042198;28;20244;-67
2021/07/01 09:51:52;;;;;;;1.30;1.20;;;17.60;29.40;;;;;;5043912;28;20278;-67
2021/07/01 09:54:22;;;;;;;1.20;1.10;;;17.70;29.30;;;;;;5044805;28;20257;-69
2021/07/01 09:56:52;;;;;;;1.10;1.00;;;17.50;30.10;;;;;;5044362;28;20190;-71
2021/07/01 09:59:27;;;;;;;1.40;0.90;;;17.40;32.30;;;;;;5031739;28;20219;-70
2021/07/01 10:01:53;;;;;;;0.97;0.97;;;17.10;40.20;;;;;;5055692;28;20198;-69
2021/07/01 10:04:19;;;;;;;0.93;0.93;;;16.80;44.60;;;;;;5067430;28;20190;-69
2021/07/01 10:06:44;;;;;;;1.23;1.20;;;16.40;46.80;;;;;;5065918;28;20324;-71
2021/07/01 10:09:30;;;;;;;1.10;1.07;;;16.20;50.40;;;;;;5065717;28;20278;-71
2021/07/01 10:11:58;;;;;;;3.40;1.27;;;16.10;51.30;;;;;;5065600;28;20186;-72
2021/07/01 10:14:25;;;;;;;10.57;1.60;;;16.10;51.70;;;;;;5070807;28;20242;-73
2021/07/01 10:16:52;;;;;;;1.43;1.27;;;16.20;51.80;;;;;;5058533;28;20187;-73
2021/07/01 10:19:21;;;;;;;1.80;1.13;;;16.50;50.10;;;;;;5071257;28;20190;-73
2021/07/01 10:22:04;;;;;;;5.57;2.00;;;16.50;48.20;;;;;;5067405;28;20186;-73
2021/07/01 10:24:32;;;;;;;4.53;1.57;;;16.80;46.30;;;;;;5074483;28;20195;-70
2021/07/01 10:26:59;;;;;;;1.30;1.20;;;16.90;43.50;;;;;;5057998;28;20639;-72
2021/07/01 10:29:39;;;;;;;1.20;1.10;;;17.00;43.60;;;;;;5060767;28;20260;-73
2021/07/01 10:32:07;;;;;;;2.13;1.03;;;17.10;43.00;;;;;;5059276;28;20651;-73
2021/07/01 10:34:48;;;;;;;1.30;1.27;;;17.30;42.60;;;;;;5054708;28;20315;-72
2021/07/01 10:37:20;;;;;;;1.33;1.20;;;17.80;39.50;;;;;;5040509;28;20189;-73
2021/07/01 10:39:47;;;;;;;1.33;1.20;;;18.10;34.80;;;;;;5057924;28;20197;-73
2021/07/01 10:42:14;;;;;;;3.00;1.30;;;18.20;30.80;;;;;;5057506;28;20718;-73
2021/07/01 10:44:40;;;;;;;1.83;1.40;;;18.50;27.70;;;;;;5057283;28;20662;-75
2021/07/01 10:47:27;;;;;;;2.77;1.60;;;18.40;27.70;;;;;;5038437;28;20193;-73
2021/07/01 10:49:52;;;;;;;2.63;2.17;;;18.80;29.20;;;;;;5060117;28;20244;-74
2021/07/01 10:52:19;;;;;;;2.77;2.47;;;18.80;26.60;;;;;;5058900;28;20220;-73
2021/07/01 10:54:58;;;;;;;2.53;2.33;;;18.90;27.00;;;;;;5040379;28;20634;-73
2021/07/01 10:57:28;;;;;;;3.20;2.47;;;19.00;25.30;;;;;;5041285;28;20597;-73
2021/07/01 10:59:56;;;;;;;3.33;2.90;;;18.60;23.30;;;;;;5059851;28;20217;-73
2021/07/01 11:02:27;;;;;;;3.90;3.50;;;18.40;24.80;;;;;;5061163;28;20567;-73
2021/07/01 11:05:01;;;;;;;3.47;2.67;;;18.30;25.20;;;;;;5061033;28;20260;-73
2021/07/01 11:07:28;;;;;;;4.00;2.63;;;18.20;26.70;;;;;;5059531;28;20191;-73
2021/07/01 11:09:56;;;;;;;3.10;2.80;;;18.10;25.20;;;;;;5045493;28;20186;-73
2021/07/01 11:12:25;;;;;;;4.37;3.30;;;18.10;26.00;;;;;;5051160;28;20223;-73
2021/07/01 11:14:54;;;;;;;4.67;3.10;;;18.10;28.30;;;;;;5062192;28;20190;-73
2021/07/01 11:17:32;;;;;;;5.70;3.57;;;18.10;28.70;;;;;;5040538;28;20198;-73
2021/07/01 11:20:13;;;;;;;3.00;2.70;;;18.30;26.80;;;;;;5061639;28;20197;-73
2021/07/01 11:22:46;;;;;;;4.47;3.10;;;18.50;26.60;;;;;;5058427;28;20196;-73
2021/07/01 11:25:43;;;;;;;5.67;3.50;;;18.30;23.30;;;;;;5060284;28;20230;-72
2021/07/01 11:28:28;;;;;;;5.17;3.30;;;18.00;24.50;;;;;;5029143;28;20668;-73
2021/07/01 11:30:59;;;;;;;4.40;3.60;;;18.00;25.00;;;;;;5044794;28;20279;-73
2021/07/01 11:33:26;;;;;;;3.80;3.40;;;18.00;24.30;;;;;;5044283;28;20465;-73
2021/07/01 11:36:09;;;;;;;4.23;3.63;;;18.10;25.30;;;;;;5047208;28;20611;-72
2021/07/01 11:38:35;;;;;;;4.17;3.47;;;18.10;23.90;;;;;;5065539;28;20198;-72
2021/07/01 11:41:04;;;;;;;3.80;3.43;;;18.20;25.80;;;;;;5062997;28;20349;-72
2021/07/01 11:43:30;;;;;;;5.43;3.70;;;18.50;25.00;;;;;;5065234;28;20186;-73
2021/07/01 11:45:57;;;;;;;5.30;3.63;;;18.60;22.60;;;;;;5064262;28;20186;-72
2021/07/01 11:48:24;;;;;;;4.77;3.57;;;18.60;20.00;;;;;;5059615;28;20577;-70
2021/07/01 11:50:52;;;;;;;7.20;3.63;;;18.50;22.10;;;;;;5061517;28;20199;-70
2021/07/01 11:53:19;;;;;;;5.97;3.00;;;18.50;23.40;;;;;;5061953;28;20573;-70
2021/07/01 11:55:49;;;;;;;5.67;3.77;;;18.50;22.00;;;;;;5060302;28;20198;-70
2021/07/01 11:58:16;;;;;;;5.57;3.57;;;18.50;22.10;;;;;;5058150;28;20217;-70
2021/07/01 12:00:42;;;;;;;3.83;3.17;;;18.60;22.00;;;;;;5060618;28;20198;-70
2021/07/01 12:03:11;;;;;;;4.30;3.37;;;18.80;21.00;;;;;;5041575;28;20302;-69
2021/07/01 12:05:44;;;;;;;6.33;3.70;;;18.70;21.30;;;;;;5047448;28;20248;-70
2021/07/01 12:08:11;;;;;;;3.87;3.47;;;18.80;19.90;;;;;;5058642;28;20222;-70
2021/07/01 12:10:37;;;;;;;5.57;3.10;;;18.90;19.90;;;;;;5056815;28;20251;-68
2021/07/01 12:13:22;;;;;;;4.83;3.43;;;18.90;21.50;;;;;;5059204;28;20187;-67
2021/07/01 12:16:12;;;;;;;5.23;3.37;;;18.70;20.00;;;;;;5055981;28;20199;-68
2021/07/01 12:18:48;;;;;;;5.13;3.60;;;18.50;20.90;;;;;;5058087;28;20197;-68
2021/07/01 12:21:17;;;;;;;4.50;3.73;;;18.40;22.70;;;;;;5057890;28;20188;-68
2021/07/01 12:23:51;;;;;;;3.60;3.27;;;18.20;23.00;;;;;;5057068;28;20190;-68
2021/07/01 12:26:36;;;;;;;5.10;3.70;;;18.30;23.30;;;;;;5061183;28;20186;-70
2021/07/01 12:29:13;;;;;;;3.57;3.27;;;18.30;23.30;;;;;;5058818;28;20267;-69
2021/07/01 12:31:41;;;;;;;6.57;3.87;;;18.20;23.20;;;;;;5058292;28;20189;-70
2021/07/01 12:34:09;;;;;;;4.03;3.57;;;18.20;24.20;;;;;;5054975;28;20554;-70
2021/07/01 12:36:43;;;;;;;4.87;3.90;;;18.10;25.20;;;;;;5057676;28;20216;-70
2021/07/01 12:39:12;;;;;;;4.20;3.67;;;18.30;25.20;;;;;;5058332;28;20189;-68
2021/07/01 12:41:47;;;;;;;5.50;3.60;;;18.50;25.50;;;;;;5058449;28;20200;-68
2021/07/01 12:44:19;;;;;;;4.50;3.70;;;18.80;25.30;;;;;;5057100;28;20211;-68
2021/07/01 12:46:47;;;;;;;4.63;3.37;;;19.00;23.80;;;;;;5060137;28;20194;-67
2021/07/01 12:49:15;;;;;;;10.53;3.40;;;18.90;22.40;;;;;;5060441;28;20893;-68
2021/07/01 12:51:42;;;;;;;4.37;3.50;;;18.90;22.70;;;;;;5062135;28;20555;-68